sensor_id;sensor_type;location;lat;lon;timestamp;P1;durP1;ratioP1;P2;durP2;ratioP2
36377;SDS011;22402;42.746;23.606;2023-08-06T00:00:21;4.27;;;3.67;;
36377;SDS011;22402;42.746;23.606;2023-08-06T00:02:47;3.40;;;3.10;;
36377;SDS011;22402;42.746;23.606;2023-08-06T00:05:13;13.40;;;4.23;;
36377;SDS011;22402;42.746;23.606;2023-08-06T00:07:42;4.53;;;4.13;;
36377;SDS011;22402;42.746;23.606;2023-08-06T00:10:11;4.10;;;3.70;;
36377;SDS011;22402;42.746;23.606;2023-08-06T00:12:37;4.70;;;4.30;;
36377;SDS011;22402;42.746;23.606;2023-08-06T00:15:02;5.10;;;4.60;;
36377;SDS011;22402;42.746;23.606;2023-08-06T00:17:28;4.97;;;4.03;;
36377;SDS011;22402;42.746;23.606;2023-08-06T00:19:53;6.10;;;4.30;;
36377;SDS011;22402;42.746;23.606;2023-08-06T00:22:19;7.77;;;4.50;;
36377;SDS011;22402;42.746;23.606;2023-08-06T00:24:44;4.97;;;4.23;;
36377;SDS011;22402;42.746;23.606;2023-08-06T00:27:10;4.00;;;3.33;;
36377;SDS011;22402;42.746;23.606;2023-08-06T00:29:35;4.47;;;4.07;;
36377;SDS011;22402;42.746;23.606;2023-08-06T00:32:01;4.73;;;4.20;;
36377;SDS011;22402;42.746;23.606;2023-08-06T00:34:26;7.67;;;4.60;;
36377;SDS011;22402;42.746;23.606;2023-08-06T00:36:52;5.90;;;4.20;;
36377;SDS011;22402;42.746;23.606;2023-08-06T00:39:18;6.97;;;4.23;;
36377;SDS011;22402;42.746;23.606;2023-08-06T00:41:44;5.03;;;4.10;;
36377;SDS011;22402;42.746;23.606;2023-08-06T00:44:09;4.53;;;4.13;;
36377;SDS011;22402;42.746;23.606;2023-08-06T00:46:35;10.13;;;4.77;;
36377;SDS011;22402;42.746;23.606;2023-08-06T00:49:00;5.73;;;4.60;;
36377;SDS011;22402;42.746;23.606;2023-08-06T00:51:26;6.30;;;4.30;;
36377;SDS011;22402;42.746;23.606;2023-08-06T00:53:52;4.80;;;4.20;;
36377;SDS011;22402;42.746;23.606;2023-08-06T00:56:18;5.47;;;4.97;;
36377;SDS011;22402;42.746;23.606;2023-08-06T00:58:44;8.37;;;4.33;;
36377;SDS011;22402;42.746;23.606;2023-08-06T01:01:13;4.80;;;4.40;;
36377;SDS011;22402;42.746;23.606;2023-08-06T01:03:39;5.10;;;4.60;;
36377;SDS011;22402;42.746;23.606;2023-08-06T01:06:04;6.03;;;4.73;;
36377;SDS011;22402;42.746;23.606;2023-08-06T01:08:36;6.57;;;4.60;;
36377;SDS011;22402;42.746;23.606;2023-08-06T01:13:50;5.40;;;4.30;;
36377;SDS011;22402;42.746;23.606;2023-08-06T01:16:38;7.50;;;5.07;;
36377;SDS011;22402;42.746;23.606;2023-08-06T01:19:05;5.40;;;4.90;;
36377;SDS011;22402;42.746;23.606;2023-08-06T01:21:41;7.57;;;5.50;;
36377;SDS011;22402;42.746;23.606;2023-08-06T01:24:06;5.73;;;4.73;;
36377;SDS011;22402;42.746;23.606;2023-08-06T01:26:36;6.33;;;4.73;;
36377;SDS011;22402;42.746;23.606;2023-08-06T01:29:10;6.67;;;4.90;;
36377;SDS011;22402;42.746;23.606;2023-08-06T01:31:43;8.53;;;4.90;;
36377;SDS011;22402;42.746;23.606;2023-08-06T01:34:13;5.43;;;4.93;;
36377;SDS011;22402;42.746;23.606;2023-08-06T01:36:48;6.63;;;5.27;;
36377;SDS011;22402;42.746;23.606;2023-08-06T01:39:15;5.93;;;5.17;;
36377;SDS011;22402;42.746;23.606;2023-08-06T01:41:40;6.77;;;4.70;;
36377;SDS011;22402;42.746;23.606;2023-08-06T01:44:06;8.27;;;4.97;;
36377;SDS011;22402;42.746;23.606;2023-08-06T01:46:31;9.70;;;5.10;;
36377;SDS011;22402;42.746;23.606;2023-08-06T01:48:57;6.20;;;4.87;;
36377;SDS011;22402;42.746;23.606;2023-08-06T01:51:22;7.93;;;5.13;;
36377;SDS011;22402;42.746;23.606;2023-08-06T01:53:48;5.90;;;4.57;;
36377;SDS011;22402;42.746;23.606;2023-08-06T01:56:13;6.07;;;4.57;;
36377;SDS011;22402;42.746;23.606;2023-08-06T01:58:39;6.70;;;5.00;;
36377;SDS011;22402;42.746;23.606;2023-08-06T02:01:04;5.90;;;5.27;;
36377;SDS011;22402;42.746;23.606;2023-08-06T02:03:30;9.97;;;6.20;;
36377;SDS011;22402;42.746;23.606;2023-08-06T02:05:55;8.17;;;6.20;;
36377;SDS011;22402;42.746;23.606;2023-08-06T02:08:21;8.80;;;6.50;;
36377;SDS011;22402;42.746;23.606;2023-08-06T02:10:46;9.60;;;5.50;;
36377;SDS011;22402;42.746;23.606;2023-08-06T02:13:12;8.17;;;6.17;;
36377;SDS011;22402;42.746;23.606;2023-08-06T02:15:43;6.93;;;5.30;;
36377;SDS011;22402;42.746;23.606;2023-08-06T02:18:09;8.07;;;6.17;;
36377;SDS011;22402;42.746;23.606;2023-08-06T02:20:35;8.10;;;6.10;;
36377;SDS011;22402;42.746;23.606;2023-08-06T02:23:01;13.27;;;6.87;;
36377;SDS011;22402;42.746;23.606;2023-08-06T02:25:26;6.73;;;6.00;;
36377;SDS011;22402;42.746;23.606;2023-08-06T02:27:52;9.23;;;6.10;;
36377;SDS011;22402;42.746;23.606;2023-08-06T02:30:17;9.40;;;5.90;;
36377;SDS011;22402;42.746;23.606;2023-08-06T02:32:43;8.57;;;7.07;;
36377;SDS011;22402;42.746;23.606;2023-08-06T02:35:09;8.60;;;6.27;;
36377;SDS011;22402;42.746;23.606;2023-08-06T02:37:34;6.90;;;5.90;;
36377;SDS011;22402;42.746;23.606;2023-08-06T02:40:00;6.87;;;5.53;;
36377;SDS011;22402;42.746;23.606;2023-08-06T02:42:25;8.47;;;6.50;;
36377;SDS011;22402;42.746;23.606;2023-08-06T02:44:52;6.60;;;6.00;;
36377;SDS011;22402;42.746;23.606;2023-08-06T02:47:20;9.00;;;6.53;;
36377;SDS011;22402;42.746;23.606;2023-08-06T02:49:46;9.40;;;7.23;;
36377;SDS011;22402;42.746;23.606;2023-08-06T02:52:12;8.80;;;6.80;;
36377;SDS011;22402;42.746;23.606;2023-08-06T02:54:37;8.07;;;6.30;;
36377;SDS011;22402;42.746;23.606;2023-08-06T02:57:03;8.60;;;6.97;;
36377;SDS011;22402;42.746;23.606;2023-08-06T02:59:30;16.03;;;7.70;;
36377;SDS011;22402;42.746;23.606;2023-08-06T03:01:55;8.43;;;7.53;;
36377;SDS011;22402;42.746;23.606;2023-08-06T03:04:21;12.00;;;8.53;;
36377;SDS011;22402;42.746;23.606;2023-08-06T03:06:46;15.53;;;8.00;;
36377;SDS011;22402;42.746;23.606;2023-08-06T03:09:14;9.00;;;7.60;;
36377;SDS011;22402;42.746;23.606;2023-08-06T03:11:39;9.47;;;8.47;;
36377;SDS011;22402;42.746;23.606;2023-08-06T03:14:04;14.60;;;9.00;;
36377;SDS011;22402;42.746;23.606;2023-08-06T03:16:30;10.80;;;8.00;;
36377;SDS011;22402;42.746;23.606;2023-08-06T03:18:55;8.10;;;7.30;;
36377;SDS011;22402;42.746;23.606;2023-08-06T03:21:21;8.87;;;7.30;;
36377;SDS011;22402;42.746;23.606;2023-08-06T03:23:46;6.80;;;6.10;;
36377;SDS011;22402;42.746;23.606;2023-08-06T03:26:13;6.43;;;5.83;;
36377;SDS011;22402;42.746;23.606;2023-08-06T03:28:38;6.80;;;6.10;;
36377;SDS011;22402;42.746;23.606;2023-08-06T03:31:04;7.13;;;6.17;;
36377;SDS011;22402;42.746;23.606;2023-08-06T03:33:29;7.07;;;6.17;;
36377;SDS011;22402;42.746;23.606;2023-08-06T03:35:55;6.80;;;6.10;;
36377;SDS011;22402;42.746;23.606;2023-08-06T03:38:20;6.70;;;5.57;;
36377;SDS011;22402;42.746;23.606;2023-08-06T03:40:46;6.80;;;5.83;;
36377;SDS011;22402;42.746;23.606;2023-08-06T03:43:11;9.10;;;5.33;;
36377;SDS011;22402;42.746;23.606;2023-08-06T03:45:40;8.50;;;5.57;;
36377;SDS011;22402;42.746;23.606;2023-08-06T03:48:06;10.10;;;6.20;;
36377;SDS011;22402;42.746;23.606;2023-08-06T03:50:32;7.80;;;5.33;;
36377;SDS011;22402;42.746;23.606;2023-08-06T03:52:57;8.30;;;6.40;;
36377;SDS011;22402;42.746;23.606;2023-08-06T03:55:22;6.70;;;5.70;;
36377;SDS011;22402;42.746;23.606;2023-08-06T03:57:48;12.53;;;7.33;;
36377;SDS011;22402;42.746;23.606;2023-08-06T04:00:14;9.30;;;7.27;;
36377;SDS011;22402;42.746;23.606;2023-08-06T04:02:40;11.80;;;7.23;;
36377;SDS011;22402;42.746;23.606;2023-08-06T04:05:05;12.77;;;8.30;;
36377;SDS011;22402;42.746;23.606;2023-08-06T04:07:31;14.43;;;9.20;;
36377;SDS011;22402;42.746;23.606;2023-08-06T04:09:57;12.77;;;8.30;;
36377;SDS011;22402;42.746;23.606;2023-08-06T04:12:24;14.03;;;8.27;;
36377;SDS011;22402;42.746;23.606;2023-08-06T04:14:50;15.47;;;7.50;;
36377;SDS011;22402;42.746;23.606;2023-08-06T04:17:17;11.77;;;7.40;;
36377;SDS011;22402;42.746;23.606;2023-08-06T04:19:45;8.03;;;6.60;;
36377;SDS011;22402;42.746;23.606;2023-08-06T04:22:18;8.57;;;6.43;;
36377;SDS011;22402;42.746;23.606;2023-08-06T04:24:43;8.07;;;6.43;;
36377;SDS011;22402;42.746;23.606;2023-08-06T04:27:09;6.83;;;6.00;;
36377;SDS011;22402;42.746;23.606;2023-08-06T04:29:35;7.03;;;6.30;;
36377;SDS011;22402;42.746;23.606;2023-08-06T04:32:01;9.63;;;6.57;;
36377;SDS011;22402;42.746;23.606;2023-08-06T04:34:26;6.10;;;5.30;;
36377;SDS011;22402;42.746;23.606;2023-08-06T04:36:52;6.10;;;4.30;;
36377;SDS011;22402;42.746;23.606;2023-08-06T04:39:17;5.87;;;4.57;;
36377;SDS011;22402;42.746;23.606;2023-08-06T04:41:43;3.43;;;3.13;;
36377;SDS011;22402;42.746;23.606;2023-08-06T04:44:08;4.60;;;4.17;;
36377;SDS011;22402;42.746;23.606;2023-08-06T04:46:34;4.90;;;4.40;;
36377;SDS011;22402;42.746;23.606;2023-08-06T04:48:59;6.07;;;4.83;;
36377;SDS011;22402;42.746;23.606;2023-08-06T04:51:24;5.10;;;4.60;;
36377;SDS011;22402;42.746;23.606;2023-08-06T04:53:50;5.20;;;4.70;;
36377;SDS011;22402;42.746;23.606;2023-08-06T04:56:15;6.33;;;5.50;;
36377;SDS011;22402;42.746;23.606;2023-08-06T04:58:41;6.97;;;5.80;;
36377;SDS011;22402;42.746;23.606;2023-08-06T05:01:06;6.67;;;5.77;;
36377;SDS011;22402;42.746;23.606;2023-08-06T05:03:32;8.30;;;6.30;;
36377;SDS011;22402;42.746;23.606;2023-08-06T05:05:57;6.30;;;5.70;;
36377;SDS011;22402;42.746;23.606;2023-08-06T05:08:22;8.17;;;5.80;;
36377;SDS011;22402;42.746;23.606;2023-08-06T05:10:48;12.17;;;5.87;;
36377;SDS011;22402;42.746;23.606;2023-08-06T05:13:13;6.03;;;5.43;;
36377;SDS011;22402;42.746;23.606;2023-08-06T05:15:39;6.53;;;5.93;;
36377;SDS011;22402;42.746;23.606;2023-08-06T05:18:07;6.37;;;5.63;;
36377;SDS011;22402;42.746;23.606;2023-08-06T05:20:35;6.83;;;5.97;;
36377;SDS011;22402;42.746;23.606;2023-08-06T05:23:01;6.33;;;5.73;;
36377;SDS011;22402;42.746;23.606;2023-08-06T05:25:27;5.80;;;5.30;;
36377;SDS011;22402;42.746;23.606;2023-08-06T05:27:52;6.93;;;4.93;;
36377;SDS011;22402;42.746;23.606;2023-08-06T05:30:18;7.40;;;5.90;;
36377;SDS011;22402;42.746;23.606;2023-08-06T05:32:43;5.90;;;5.30;;
36377;SDS011;22402;42.746;23.606;2023-08-06T05:35:09;6.40;;;5.20;;
36377;SDS011;22402;42.746;23.606;2023-08-06T05:37:34;5.83;;;5.20;;
36377;SDS011;22402;42.746;23.606;2023-08-06T05:40:00;6.00;;;5.40;;
36377;SDS011;22402;42.746;23.606;2023-08-06T05:42:26;11.47;;;5.50;;
36377;SDS011;22402;42.746;23.606;2023-08-06T05:44:52;6.20;;;5.60;;
36377;SDS011;22402;42.746;23.606;2023-08-06T05:47:17;6.13;;;5.57;;
36377;SDS011;22402;42.746;23.606;2023-08-06T05:49:44;6.10;;;5.50;;
36377;SDS011;22402;42.746;23.606;2023-08-06T05:52:10;7.97;;;6.03;;
36377;SDS011;22402;42.746;23.606;2023-08-06T05:54:35;6.97;;;6.27;;
36377;SDS011;22402;42.746;23.606;2023-08-06T05:57:01;8.20;;;6.67;;
36377;SDS011;22402;42.746;23.606;2023-08-06T05:59:26;6.83;;;6.10;;
36377;SDS011;22402;42.746;23.606;2023-08-06T06:01:52;7.43;;;5.60;;
36377;SDS011;22402;42.746;23.606;2023-08-06T06:04:17;6.03;;;5.43;;
36377;SDS011;22402;42.746;23.606;2023-08-06T06:06:42;6.40;;;5.70;;
36377;SDS011;22402;42.746;23.606;2023-08-06T06:09:08;6.00;;;5.50;;
36377;SDS011;22402;42.746;23.606;2023-08-06T06:11:33;5.97;;;5.33;;
36377;SDS011;22402;42.746;23.606;2023-08-06T06:13:59;6.90;;;6.27;;
36377;SDS011;22402;42.746;23.606;2023-08-06T06:16:24;8.20;;;6.07;;
36377;SDS011;22402;42.746;23.606;2023-08-06T06:18:49;6.37;;;5.40;;
36377;SDS011;22402;42.746;23.606;2023-08-06T06:21:15;6.60;;;5.50;;
36377;SDS011;22402;42.746;23.606;2023-08-06T06:23:40;6.60;;;5.90;;
36377;SDS011;22402;42.746;23.606;2023-08-06T06:26:06;11.37;;;5.87;;
36377;SDS011;22402;42.746;23.606;2023-08-06T06:28:31;6.80;;;5.30;;
36377;SDS011;22402;42.746;23.606;2023-08-06T06:31:00;6.23;;;5.63;;
36377;SDS011;22402;42.746;23.606;2023-08-06T06:33:26;6.70;;;5.20;;
36377;SDS011;22402;42.746;23.606;2023-08-06T06:35:52;8.00;;;5.43;;
36377;SDS011;22402;42.746;23.606;2023-08-06T06:38:17;5.40;;;5.00;;
36377;SDS011;22402;42.746;23.606;2023-08-06T06:40:43;5.37;;;4.83;;
36377;SDS011;22402;42.746;23.606;2023-08-06T06:43:08;5.10;;;4.70;;
36377;SDS011;22402;42.746;23.606;2023-08-06T06:45:33;5.17;;;4.67;;
36377;SDS011;22402;42.746;23.606;2023-08-06T06:47:59;4.43;;;4.00;;
36377;SDS011;22402;42.746;23.606;2023-08-06T06:50:24;4.67;;;4.10;;
36377;SDS011;22402;42.746;23.606;2023-08-06T06:52:51;4.93;;;4.43;;
36377;SDS011;22402;42.746;23.606;2023-08-06T06:55:16;4.03;;;3.63;;
36377;SDS011;22402;42.746;23.606;2023-08-06T06:57:42;4.00;;;3.70;;
36377;SDS011;22402;42.746;23.606;2023-08-06T07:00:08;3.60;;;3.30;;
36377;SDS011;22402;42.746;23.606;2023-08-06T07:02:34;3.67;;;3.13;;
36377;SDS011;22402;42.746;23.606;2023-08-06T07:04:59;3.50;;;3.00;;
36377;SDS011;22402;42.746;23.606;2023-08-06T07:07:24;2.70;;;2.40;;
36377;SDS011;22402;42.746;23.606;2023-08-06T07:09:50;3.80;;;2.70;;
36377;SDS011;22402;42.746;23.606;2023-08-06T07:12:15;3.10;;;2.77;;
36377;SDS011;22402;42.746;23.606;2023-08-06T07:14:43;3.40;;;3.10;;
36377;SDS011;22402;42.746;23.606;2023-08-06T07:17:09;3.60;;;2.83;;
36377;SDS011;22402;42.746;23.606;2023-08-06T07:19:34;2.43;;;2.23;;
36377;SDS011;22402;42.746;23.606;2023-08-06T07:22:00;2.50;;;2.30;;
36377;SDS011;22402;42.746;23.606;2023-08-06T07:24:25;2.47;;;2.27;;
36377;SDS011;22402;42.746;23.606;2023-08-06T07:26:51;2.73;;;2.47;;
36377;SDS011;22402;42.746;23.606;2023-08-06T07:29:17;3.70;;;2.00;;
36377;SDS011;22402;42.746;23.606;2023-08-06T07:31:46;1.97;;;1.87;;
36377;SDS011;22402;42.746;23.606;2023-08-06T07:34:12;1.67;;;1.57;;
36377;SDS011;22402;42.746;23.606;2023-08-06T07:36:38;4.40;;;1.77;;
36377;SDS011;22402;42.746;23.606;2023-08-06T07:39:03;3.00;;;1.67;;
36377;SDS011;22402;42.746;23.606;2023-08-06T07:41:31;1.77;;;1.67;;
36377;SDS011;22402;42.746;23.606;2023-08-06T07:43:56;2.13;;;1.90;;
36377;SDS011;22402;42.746;23.606;2023-08-06T07:46:22;4.23;;;1.83;;
36377;SDS011;22402;42.746;23.606;2023-08-06T07:48:47;1.73;;;1.63;;
36377;SDS011;22402;42.746;23.606;2023-08-06T07:51:13;1.60;;;1.50;;
36377;SDS011;22402;42.746;23.606;2023-08-06T07:53:39;1.47;;;1.33;;
36377;SDS011;22402;42.746;23.606;2023-08-06T07:56:04;1.40;;;1.30;;
36377;SDS011;22402;42.746;23.606;2023-08-06T07:58:30;1.90;;;1.80;;
36377;SDS011;22402;42.746;23.606;2023-08-06T08:00:56;1.63;;;1.30;;
36377;SDS011;22402;42.746;23.606;2023-08-06T08:03:22;1.40;;;1.30;;
36377;SDS011;22402;42.746;23.606;2023-08-06T08:05:47;1.23;;;1.13;;
36377;SDS011;22402;42.746;23.606;2023-08-06T08:08:13;2.60;;;1.73;;
36377;SDS011;22402;42.746;23.606;2023-08-06T08:10:38;1.87;;;1.27;;
36377;SDS011;22402;42.746;23.606;2023-08-06T08:13:04;1.50;;;1.40;;
36377;SDS011;22402;42.746;23.606;2023-08-06T08:15:30;2.13;;;1.50;;
36377;SDS011;22402;42.746;23.606;2023-08-06T08:17:58;1.03;;;0.90;;
36377;SDS011;22402;42.746;23.606;2023-08-06T08:20:24;2.93;;;1.60;;
36377;SDS011;22402;42.746;23.606;2023-08-06T08:22:51;1.57;;;1.40;;
36377;SDS011;22402;42.746;23.606;2023-08-06T08:25:17;1.60;;;1.50;;
36377;SDS011;22402;42.746;23.606;2023-08-06T08:27:42;1.87;;;1.70;;
36377;SDS011;22402;42.746;23.606;2023-08-06T08:30:08;1.47;;;1.30;;
36377;SDS011;22402;42.746;23.606;2023-08-06T08:32:33;1.80;;;1.33;;
36377;SDS011;22402;42.746;23.606;2023-08-06T08:34:59;1.53;;;1.37;;
36377;SDS011;22402;42.746;23.606;2023-08-06T08:37:24;3.53;;;1.63;;
36377;SDS011;22402;42.746;23.606;2023-08-06T08:39:49;2.50;;;1.13;;
36377;SDS011;22402;42.746;23.606;2023-08-06T08:42:15;1.90;;;1.73;;
36377;SDS011;22402;42.746;23.606;2023-08-06T08:44:42;2.40;;;1.40;;
36377;SDS011;22402;42.746;23.606;2023-08-06T08:47:11;2.73;;;1.27;;
36377;SDS011;22402;42.746;23.606;2023-08-06T08:49:38;2.30;;;1.43;;
36377;SDS011;22402;42.746;23.606;2023-08-06T08:52:04;3.30;;;1.60;;
36377;SDS011;22402;42.746;23.606;2023-08-06T08:54:35;1.33;;;1.23;;
36377;SDS011;22402;42.746;23.606;2023-08-06T08:57:03;2.53;;;1.43;;
36377;SDS011;22402;42.746;23.606;2023-08-06T08:59:29;1.73;;;1.33;;
36377;SDS011;22402;42.746;23.606;2023-08-06T09:01:58;3.00;;;1.10;;
36377;SDS011;22402;42.746;23.606;2023-08-06T09:04:26;1.30;;;0.97;;
36377;SDS011;22402;42.746;23.606;2023-08-06T09:06:56;1.13;;;1.03;;
36377;SDS011;22402;42.746;23.606;2023-08-06T09:09:28;1.00;;;0.90;;
36377;SDS011;22402;42.746;23.606;2023-08-06T09:11:59;2.10;;;1.40;;
36377;SDS011;22402;42.746;23.606;2023-08-06T09:14:27;1.40;;;1.30;;
36377;SDS011;22402;42.746;23.606;2023-08-06T09:16:52;1.53;;;1.30;;
36377;SDS011;22402;42.746;23.606;2023-08-06T09:19:18;2.03;;;1.70;;
36377;SDS011;22402;42.746;23.606;2023-08-06T09:21:44;1.10;;;1.00;;
36377;SDS011;22402;42.746;23.606;2023-08-06T09:24:14;1.90;;;1.13;;
36377;SDS011;22402;42.746;23.606;2023-08-06T09:26:41;1.40;;;1.30;;
36377;SDS011;22402;42.746;23.606;2023-08-06T09:29:08;1.20;;;1.10;;
36377;SDS011;22402;42.746;23.606;2023-08-06T09:31:41;1.20;;;1.20;;
36377;SDS011;22402;42.746;23.606;2023-08-06T09:34:17;0.90;;;0.90;;
36377;SDS011;22402;42.746;23.606;2023-08-06T09:36:50;2.60;;;1.27;;
36377;SDS011;22402;42.746;23.606;2023-08-06T09:39:20;1.10;;;1.00;;
36377;SDS011;22402;42.746;23.606;2023-08-06T09:41:55;1.27;;;1.17;;
36377;SDS011;22402;42.746;23.606;2023-08-06T09:44:21;1.63;;;1.03;;
36377;SDS011;22402;42.746;23.606;2023-08-06T09:46:49;1.20;;;1.10;;
36377;SDS011;22402;42.746;23.606;2023-08-06T09:49:17;1.30;;;1.20;;
36377;SDS011;22402;42.746;23.606;2023-08-06T09:51:43;1.43;;;1.13;;
36377;SDS011;22402;42.746;23.606;2023-08-06T09:54:11;1.10;;;1.03;;
36377;SDS011;22402;42.746;23.606;2023-08-06T09:56:39;1.37;;;0.93;;
36377;SDS011;22402;42.746;23.606;2023-08-06T09:59:05;1.00;;;0.90;;
36377;SDS011;22402;42.746;23.606;2023-08-06T10:01:32;2.00;;;1.00;;
36377;SDS011;22402;42.746;23.606;2023-08-06T10:03:59;0.90;;;0.90;;
36377;SDS011;22402;42.746;23.606;2023-08-06T10:06:26;8.27;;;1.20;;
36377;SDS011;22402;42.746;23.606;2023-08-06T10:08:53;1.10;;;1.00;;
36377;SDS011;22402;42.746;23.606;2023-08-06T10:11:18;1.30;;;1.20;;
36377;SDS011;22402;42.746;23.606;2023-08-06T10:13:51;1.40;;;1.02;;
36377;SDS011;22402;42.746;23.606;2023-08-06T10:16:20;1.10;;;0.98;;
36377;SDS011;22402;42.746;23.606;2023-08-06T10:18:47;1.08;;;1.00;;
36377;SDS011;22402;42.746;23.606;2023-08-06T10:21:14;1.48;;;1.00;;
36377;SDS011;22402;42.746;23.606;2023-08-06T10:23:41;0.68;;;0.68;;
36377;SDS011;22402;42.746;23.606;2023-08-06T10:26:07;0.70;;;0.70;;
36377;SDS011;22402;42.746;23.606;2023-08-06T10:28:37;1.58;;;1.00;;
36377;SDS011;22402;42.746;23.606;2023-08-06T10:31:03;1.38;;;1.20;;
36377;SDS011;22402;42.746;23.606;2023-08-06T10:33:42;1.30;;;1.20;;
36377;SDS011;22402;42.746;23.606;2023-08-06T10:36:10;1.52;;;0.93;;
36377;SDS011;22402;42.746;23.606;2023-08-06T10:38:49;1.00;;;0.90;;
36377;SDS011;22402;42.746;23.606;2023-08-06T10:41:16;1.50;;;1.35;;
36377;SDS011;22402;42.746;23.606;2023-08-06T10:44:00;1.75;;;1.00;;
36377;SDS011;22402;42.746;23.606;2023-08-06T10:46:31;0.77;;;0.73;;
36377;SDS011;22402;42.746;23.606;2023-08-06T10:48:57;0.80;;;0.80;;
36377;SDS011;22402;42.746;23.606;2023-08-06T10:51:22;0.85;;;0.85;;
36377;SDS011;22402;42.746;23.606;2023-08-06T10:53:48;0.90;;;0.90;;
36377;SDS011;22402;42.746;23.606;2023-08-06T10:56:16;1.40;;;1.30;;
36377;SDS011;22402;42.746;23.606;2023-08-06T10:58:47;1.13;;;1.02;;
36377;SDS011;22402;42.746;23.606;2023-08-06T11:01:13;3.43;;;1.90;;
36377;SDS011;22402;42.746;23.606;2023-08-06T11:03:40;3.03;;;1.73;;
36377;SDS011;22402;42.746;23.606;2023-08-06T11:06:06;2.10;;;1.77;;
36377;SDS011;22402;42.746;23.606;2023-08-06T11:08:34;3.30;;;2.40;;
36377;SDS011;22402;42.746;23.606;2023-08-06T11:11:08;5.50;;;2.10;;
36377;SDS011;22402;42.746;23.606;2023-08-06T11:13:38;3.67;;;2.03;;
36377;SDS011;22402;42.746;23.606;2023-08-06T11:16:23;2.90;;;2.60;;
36377;SDS011;22402;42.746;23.606;2023-08-06T11:18:52;6.60;;;3.13;;
36377;SDS011;22402;42.746;23.606;2023-08-06T11:21:22;5.10;;;2.00;;
36377;SDS011;22402;42.746;23.606;2023-08-06T11:23:49;3.13;;;1.80;;
36377;SDS011;22402;42.746;23.606;2023-08-06T11:26:20;2.00;;;1.80;;
36377;SDS011;22402;42.746;23.606;2023-08-06T11:28:45;3.03;;;2.50;;
36377;SDS011;22402;42.746;23.606;2023-08-06T11:31:20;3.30;;;2.23;;
36377;SDS011;22402;42.746;23.606;2023-08-06T11:33:47;3.27;;;2.60;;
36377;SDS011;22402;42.746;23.606;2023-08-06T11:36:13;2.63;;;2.40;;
36377;SDS011;22402;42.746;23.606;2023-08-06T11:38:38;2.67;;;2.27;;
36377;SDS011;22402;42.746;23.606;2023-08-06T11:41:07;5.77;;;2.37;;
36377;SDS011;22402;42.746;23.606;2023-08-06T11:43:32;4.87;;;2.60;;
36377;SDS011;22402;42.746;23.606;2023-08-06T11:45:59;2.47;;;2.27;;
36377;SDS011;22402;42.746;23.606;2023-08-06T11:48:25;2.40;;;2.10;;
36377;SDS011;22402;42.746;23.606;2023-08-06T11:50:53;3.80;;;2.27;;
36377;SDS011;22402;42.746;23.606;2023-08-06T11:53:19;6.20;;;2.23;;
36377;SDS011;22402;42.746;23.606;2023-08-06T11:55:44;2.50;;;2.13;;
36377;SDS011;22402;42.746;23.606;2023-08-06T11:58:10;3.23;;;2.50;;
36377;SDS011;22402;42.746;23.606;2023-08-06T12:00:39;2.57;;;2.37;;
36377;SDS011;22402;42.746;23.606;2023-08-06T12:03:05;2.60;;;2.40;;
36377;SDS011;22402;42.746;23.606;2023-08-06T12:05:31;2.30;;;2.10;;
36377;SDS011;22402;42.746;23.606;2023-08-06T12:08:01;2.00;;;1.87;;
36377;SDS011;22402;42.746;23.606;2023-08-06T12:10:29;3.23;;;1.73;;
36377;SDS011;22402;42.746;23.606;2023-08-06T12:12:55;1.90;;;1.80;;
36377;SDS011;22402;42.746;23.606;2023-08-06T12:15:22;2.17;;;2.00;;
36377;SDS011;22402;42.746;23.606;2023-08-06T12:17:48;2.23;;;2.03;;
36377;SDS011;22402;42.746;23.606;2023-08-06T12:20:14;4.90;;;2.07;;
36377;SDS011;22402;42.746;23.606;2023-08-06T12:22:40;3.37;;;2.00;;
36377;SDS011;22402;42.746;23.606;2023-08-06T12:25:06;7.20;;;1.87;;
36377;SDS011;22402;42.746;23.606;2023-08-06T12:27:37;1.97;;;1.87;;
36377;SDS011;22402;42.746;23.606;2023-08-06T12:30:04;2.10;;;1.90;;
36377;SDS011;22402;42.746;23.606;2023-08-06T12:32:30;1.67;;;1.57;;
36377;SDS011;22402;42.746;23.606;2023-08-06T12:34:56;2.40;;;2.20;;
36377;SDS011;22402;42.746;23.606;2023-08-06T12:37:21;2.13;;;1.80;;
36377;SDS011;22402;42.746;23.606;2023-08-06T12:39:49;2.83;;;1.90;;
36377;SDS011;22402;42.746;23.606;2023-08-06T12:42:14;3.03;;;1.50;;
36377;SDS011;22402;42.746;23.606;2023-08-06T12:44:40;1.57;;;1.43;;
36377;SDS011;22402;42.746;23.606;2023-08-06T12:47:06;1.60;;;1.40;;
36377;SDS011;22402;42.746;23.606;2023-08-06T12:49:32;1.40;;;1.23;;
36377;SDS011;22402;42.746;23.606;2023-08-06T12:51:58;2.20;;;1.57;;
36377;SDS011;22402;42.746;23.606;2023-08-06T12:54:27;1.73;;;1.63;;
36377;SDS011;22402;42.746;23.606;2023-08-06T12:56:53;2.30;;;2.10;;
36377;SDS011;22402;42.746;23.606;2023-08-06T12:59:18;2.03;;;1.90;;
36377;SDS011;22402;42.746;23.606;2023-08-06T13:01:44;2.47;;;2.27;;
36377;SDS011;22402;42.746;23.606;2023-08-06T13:04:10;3.30;;;2.30;;
36377;SDS011;22402;42.746;23.606;2023-08-06T13:06:37;2.67;;;2.47;;
36377;SDS011;22402;42.746;23.606;2023-08-06T13:09:04;3.37;;;2.50;;
36377;SDS011;22402;42.746;23.606;2023-08-06T13:11:30;2.57;;;2.37;;
36377;SDS011;22402;42.746;23.606;2023-08-06T13:13:58;2.70;;;2.50;;
36377;SDS011;22402;42.746;23.606;2023-08-06T13:16:24;2.30;;;2.10;;
36377;SDS011;22402;42.746;23.606;2023-08-06T13:18:49;3.13;;;2.10;;
36377;SDS011;22402;42.746;23.606;2023-08-06T13:21:15;4.13;;;2.47;;
36377;SDS011;22402;42.746;23.606;2023-08-06T13:23:40;2.40;;;2.00;;
36377;SDS011;22402;42.746;23.606;2023-08-06T13:26:06;2.30;;;2.00;;
36377;SDS011;22402;42.746;23.606;2023-08-06T13:28:31;6.50;;;2.10;;
36377;SDS011;22402;42.746;23.606;2023-08-06T13:30:57;3.87;;;2.13;;
36377;SDS011;22402;42.746;23.606;2023-08-06T13:33:22;1.40;;;1.30;;
36377;SDS011;22402;42.746;23.606;2023-08-06T13:35:47;2.00;;;1.80;;
36377;SDS011;22402;42.746;23.606;2023-08-06T13:38:14;2.70;;;1.50;;
36377;SDS011;22402;42.746;23.606;2023-08-06T13:40:40;2.93;;;2.00;;
36377;SDS011;22402;42.746;23.606;2023-08-06T13:43:05;3.57;;;1.93;;
36377;SDS011;22402;42.746;23.606;2023-08-06T13:45:31;2.33;;;1.80;;
36377;SDS011;22402;42.746;23.606;2023-08-06T13:47:56;3.70;;;2.00;;
36377;SDS011;22402;42.746;23.606;2023-08-06T13:50:22;2.23;;;2.03;;
36377;SDS011;22402;42.746;23.606;2023-08-06T13:52:51;3.00;;;2.70;;
36377;SDS011;22402;42.746;23.606;2023-08-06T13:55:18;3.00;;;2.17;;
36377;SDS011;22402;42.746;23.606;2023-08-06T13:57:43;3.07;;;2.30;;
36377;SDS011;22402;42.746;23.606;2023-08-06T14:00:09;2.50;;;2.30;;
36377;SDS011;22402;42.746;23.606;2023-08-06T14:02:35;2.47;;;2.20;;
36377;SDS011;22402;42.746;23.606;2023-08-06T14:05:00;2.97;;;2.70;;
36377;SDS011;22402;42.746;23.606;2023-08-06T14:07:26;5.30;;;2.37;;
36377;SDS011;22402;42.746;23.606;2023-08-06T14:09:51;2.40;;;2.20;;
36377;SDS011;22402;42.746;23.606;2023-08-06T14:12:17;6.20;;;2.80;;
36377;SDS011;22402;42.746;23.606;2023-08-06T14:14:43;2.30;;;2.10;;
36377;SDS011;22402;42.746;23.606;2023-08-06T14:17:08;2.67;;;2.47;;
36377;SDS011;22402;42.746;23.606;2023-08-06T14:19:34;3.43;;;2.10;;
36377;SDS011;22402;42.746;23.606;2023-08-06T14:21:59;3.47;;;2.80;;
36377;SDS011;22402;42.746;23.606;2023-08-06T14:24:25;4.50;;;2.00;;
36377;SDS011;22402;42.746;23.606;2023-08-06T14:26:50;3.17;;;2.63;;
36377;SDS011;22402;42.746;23.606;2023-08-06T14:29:16;2.33;;;1.80;;
36377;SDS011;22402;42.746;23.606;2023-08-06T14:31:42;2.73;;;1.93;;